createdAt,value
2022-11-30T00:01:25.706Z,101960.59
2022-11-30T00:03:55.174Z,101953.84
2022-11-30T00:06:24.084Z,101959.03
2022-11-30T00:08:55.883Z,101960.25
2022-11-30T00:11:25.614Z,101966.25
2022-11-30T00:13:54.905Z,101956.63
2022-11-30T00:16:24.415Z,101953.97
2022-11-30T00:18:52.912Z,101955.78
2022-11-30T00:21:21.177Z,101958.44
2022-11-30T00:23:50.493Z,101959.41
2022-11-30T00:26:22.940Z,101954.47
2022-11-30T00:28:51.194Z,101959.63
2022-11-30T00:31:20.053Z,101965.53
2022-11-30T00:33:48.434Z,101963.59
2022-11-30T00:36:18.659Z,101965.28
2022-11-30T00:38:47.534Z,101957.22
2022-11-30T00:41:15.827Z,101953.00
2022-11-30T00:43:45.374Z,101953.84
2022-11-30T00:46:13.601Z,101953.84
2022-11-30T00:48:42.533Z,101962.75
2022-11-30T00:51:12.681Z,101967.22
2022-11-30T00:53:42.045Z,101965.66
2022-11-30T00:56:10.606Z,101966.50
2022-11-30T00:58:38.568Z,101973.38
2022-11-30T01:01:08.701Z,101976.88
2022-11-30T01:03:37.820Z,101974.22
2022-11-30T01:06:06.602Z,101976.97
2022-11-30T01:08:35.051Z,101978.78
2022-11-30T01:11:08.935Z,101977.94
2022-11-30T01:13:37.388Z,101973.72
2022-11-30T01:16:16.195Z,101980.97
2022-11-30T01:18:44.777Z,101975.44
2022-11-30T01:21:16.443Z,101977.88
2022-11-30T01:23:45.020Z,101986.78
2022-11-30T01:26:13.859Z,101984.25
2022-11-30T01:28:44.081Z,101988.94
2022-11-30T01:31:15.325Z,101986.41
2022-11-30T01:33:43.509Z,102000.66
2022-11-30T01:36:13.365Z,101991.88
2022-11-30T01:38:43.040Z,101997.00
2022-11-30T01:41:12.823Z,101994.13
2022-11-30T01:43:43.221Z,101986.91
2022-11-30T01:46:33.910Z,101999.19
2022-11-30T01:49:07.806Z,101993.88
2022-11-30T01:51:41.579Z,101987.63
2022-11-30T01:54:12.002Z,101986.66
2022-11-30T01:56:49.399Z,101990.03
2022-11-30T01:59:18.438Z,101994.22
2022-11-30T02:01:48.435Z,101995.78
2022-11-30T02:04:21.698Z,101993.84
2022-11-30T02:06:50.504Z,101996.38
2022-11-30T02:09:20.934Z,101983.84
2022-11-30T02:11:49.706Z,101973.50
2022-11-30T02:14:32.249Z,101993.97
2022-11-30T02:17:16.848Z,101987.94
2022-11-30T02:20:17.796Z,101978.31
2022-11-30T02:23:04.521Z,101985.91
2022-11-30T02:25:44.328Z,101985.06
2022-11-30T02:28:37.511Z,101987.00
2022-11-30T02:31:12.625Z,101991.56
2022-11-30T02:33:42.599Z,101988.91
2022-11-30T02:36:11.748Z,101990.59
2022-11-30T02:38:40.802Z,101991.44
2022-11-30T02:41:08.848Z,101987.94
2022-11-30T02:43:37.245Z,101990.38
2022-11-30T02:46:12.947Z,101991.81
2022-11-30T02:48:46.450Z,101987.22
2022-11-30T02:51:19.186Z,101974.53
2022-11-30T02:53:48.377Z,101985.75
2022-11-30T02:56:16.414Z,101976.59
2022-11-30T02:58:44.643Z,101988.88
2022-11-30T03:01:14.048Z,101983.56
2022-11-30T03:03:42.056Z,101990.81
2022-11-30T03:06:21.484Z,101981.88
2022-11-30T03:08:49.463Z,101983.44
2022-11-30T03:11:18.029Z,101979.72
2022-11-30T03:13:46.029Z,101981.38
2022-11-30T03:16:16.049Z,101981.38
2022-11-30T03:18:46.189Z,101985.13
2022-11-30T03:21:14.438Z,101984.28
2022-11-30T03:23:42.596Z,101978.38
2022-11-30T03:26:10.703Z,101990.69
2022-11-30T03:28:38.745Z,101988.88
2022-11-30T03:31:06.970Z,101981.03
2022-11-30T03:33:36.411Z,101980.06
2022-11-30T03:36:06.649Z,101992.72
2022-11-30T03:38:35.014Z,101990.31
2022-11-30T03:41:03.938Z,101992.84
2022-11-30T03:43:32.024Z,101991.88
2022-11-30T03:46:00.097Z,101979.72
2022-11-30T03:48:28.173Z,101982.97
2022-11-30T03:50:57.731Z,101993.47
2022-11-30T03:53:26.502Z,101992.72
2022-11-30T03:55:55.988Z,101992.72
2022-11-30T03:58:25.759Z,101995.16
2022-11-30T04:01:00.622Z,101997.91
2022-11-30T04:03:28.711Z,101987.91
2022-11-30T04:05:58.580Z,101994.78
2022-11-30T04:08:30.102Z,101997.56
2022-11-30T04:11:00.170Z,102003.56
2022-11-30T04:13:31.048Z,102004.25
2022-11-30T04:15:59.188Z,102003.28
2022-11-30T04:18:28.354Z,102003.19
2022-11-30T04:20:59.673Z,102008.47
2022-11-30T04:23:31.006Z,102013.19
2022-11-30T04:25:59.281Z,102013.47
2022-11-30T04:28:27.483Z,102011.06
2022-11-30T04:30:55.841Z,102007.56
2022-11-30T04:33:23.997Z,102018.03
2022-11-30T04:35:56.203Z,102011.16
2022-11-30T04:38:26.425Z,102013.09
2022-11-30T04:40:54.410Z,102016.00
2022-11-30T04:43:22.774Z,102014.69
2022-11-30T04:45:51.162Z,102018.44
2022-11-30T04:48:20.147Z,102025.78
2022-11-30T04:50:48.282Z,102020.03
2022-11-30T04:53:16.242Z,102010.88
2022-11-30T04:55:45.612Z,102007.50
2022-11-30T04:58:13.583Z,102013.06
2022-11-30T05:00:41.520Z,102014.03
2022-11-30T05:03:09.429Z,102015.84
2022-11-30T05:05:37.386Z,102014.28
2022-11-30T05:08:05.357Z,102014.88
2022-11-30T05:10:36.788Z,102013.06
2022-11-30T05:13:07.364Z,102013.06
2022-11-30T05:15:36.660Z,102018.38
2022-11-30T05:18:04.857Z,102019.56
2022-11-30T05:20:32.822Z,102014.50
2022-11-30T05:23:00.790Z,102018.13
2022-11-30T05:25:33.351Z,102017.91
2022-11-30T05:28:01.384Z,102023.44
2022-11-30T05:30:30.797Z,102027.88
2022-11-30T05:32:58.721Z,102030.66
2022-11-30T05:35:27.004Z,102031.63
2022-11-30T05:37:55.437Z,102035.09
2022-11-30T05:40:37.340Z,102029.81
2022-11-30T05:43:06.321Z,102034.25
2022-11-30T05:45:35.709Z,102033.41
2022-11-30T05:48:03.707Z,102023.66
2022-11-30T05:50:39.686Z,102035.09
2022-11-30T05:53:07.671Z,102032.56
2022-11-30T05:55:36.260Z,102035.22
2022-11-30T05:58:04.233Z,102039.56
2022-11-30T06:00:32.203Z,102035.94
2022-11-30T06:03:01.623Z,102042.09
2022-11-30T06:05:30.425Z,102039.22
2022-11-30T06:08:00.799Z,102045.22
2022-11-30T06:10:28.826Z,102046.06
2022-11-30T06:12:56.767Z,102050.53
2022-11-30T06:15:25.219Z,102048.00
2022-11-30T06:17:56.700Z,102052.56
2022-11-30T06:20:27.604Z,102047.50
2022-11-30T06:22:55.713Z,102053.03
2022-11-30T06:25:24.423Z,102060.97
2022-11-30T06:27:52.818Z,102056.78
2022-11-30T06:30:34.750Z,102063.91
2022-11-30T06:33:02.751Z,102066.66
2022-11-30T06:35:34.878Z,102067.50
2022-11-30T06:38:02.842Z,102072.69
2022-11-30T06:40:31.090Z,102076.06
2022-11-30T06:42:59.216Z,102072.41
2022-11-30T06:45:30.925Z,102072.19
2022-11-30T06:47:59.244Z,102077.25
2022-11-30T06:50:27.282Z,102081.72
2022-11-30T06:52:57.080Z,102087.63
2022-11-30T06:55:25.838Z,102084.13
2022-11-30T06:57:53.852Z,102085.69
2022-11-30T07:00:22.782Z,102090.03
2022-11-30T07:02:50.695Z,102091.00
2022-11-30T07:05:21.696Z,102092.91
2022-11-30T07:07:49.715Z,102093.78
2022-11-30T07:10:20.353Z,102098.94
2022-11-30T07:12:48.482Z,102098.69
2022-11-30T07:15:18.315Z,102105.69
2022-11-30T07:17:46.271Z,102110.25
2022-11-30T07:20:14.891Z,102118.06
2022-11-30T07:22:42.930Z,102119.31
2022-11-30T07:25:42.889Z,102119.66
2022-11-30T07:28:12.377Z,102119.53
2022-11-30T07:30:40.307Z,102122.91
2022-11-30T07:33:08.277Z,102125.44
2022-11-30T07:35:36.242Z,102126.41
2022-11-30T07:38:09.466Z,102121.69
2022-11-30T07:40:37.861Z,102116.88
2022-11-30T07:43:05.836Z,102122.81
2022-11-30T07:45:37.417Z,102123.38
2022-11-30T07:48:05.497Z,102124.09
2022-11-30T07:50:33.529Z,102129.19
2022-11-30T07:53:01.431Z,102127.03
2022-11-30T07:55:37.389Z,102125.22
2022-11-30T07:58:05.339Z,102118.94
2022-11-30T08:00:33.384Z,102132.06
2022-11-30T08:03:02.768Z,102137.13
2022-11-30T08:05:34.202Z,102130.13
2022-11-30T08:08:02.247Z,102127.47
2022-11-30T08:10:30.357Z,102129.16
2022-11-30T08:12:58.299Z,102139.53
2022-11-30T08:15:32.428Z,102143.88
2022-11-30T08:18:06.026Z,102136.41
2022-11-30T08:20:36.828Z,102144.09
2022-11-30T08:23:04.756Z,102149.19
2022-11-30T08:25:32.869Z,102147.38
2022-11-30T08:28:00.902Z,102144.59
2022-11-30T08:30:32.453Z,102150.63
2022-11-30T08:33:02.335Z,102156.53
2022-11-30T08:35:30.327Z,102157.50
2022-11-30T08:37:58.263Z,102147.00
2022-11-30T08:40:26.283Z,102150.25
2022-11-30T08:42:56.498Z,102146.50
2022-11-30T08:45:24.449Z,102152.78
2022-11-30T08:47:52.391Z,102151.94
2022-11-30T08:50:21.790Z,102152.91
2022-11-30T08:52:49.742Z,102156.66
2022-11-30T08:55:17.849Z,102154.59
2022-11-30T08:57:45.832Z,102152.78
2022-11-30T09:00:14.833Z,102152.53
2022-11-30T09:02:42.961Z,102144.69
2022-11-30T09:05:11.353Z,102137.81
2022-11-30T09:07:41.326Z,102143.38
2022-11-30T09:10:10.363Z,102149.78
2022-11-30T09:12:39.633Z,102151.47
2022-11-30T09:15:10.830Z,102150.63
2022-11-30T09:17:38.906Z,102145.44
2022-11-30T09:20:08.889Z,102146.88
2022-11-30T09:22:36.827Z,102148.56
2022-11-30T09:25:14.333Z,102145.19
2022-11-30T09:27:42.738Z,102146.03
2022-11-30T09:30:18.146Z,102144.47
2022-11-30T09:32:46.182Z,102149.03
2022-11-30T09:35:16.901Z,102143.97
2022-11-30T09:37:45.064Z,102140.75
2022-11-30T09:40:19.580Z,102139.91
2022-11-30T09:42:57.547Z,102139.06
2022-11-30T09:45:30.015Z,102142.06
2022-11-30T09:48:19.548Z,102144.94
2022-11-30T09:50:49.323Z,102147.72
2022-11-30T09:53:28.921Z,102151.81
2022-11-30T09:56:10.315Z,102145.31
2022-11-30T09:58:46.943Z,102149.56
2022-11-30T10:01:19.536Z,102153.50
2022-11-30T10:03:48.121Z,102153.63
2022-11-30T10:06:25.613Z,102150.13
2022-11-30T10:09:12.644Z,102157.25
2022-11-30T10:11:53.219Z,102150.72
2022-11-30T10:14:33.890Z,102157.84
2022-11-30T10:17:13.267Z,102150.97
2022-11-30T10:19:58.504Z,102154.22
2022-11-30T10:22:34.686Z,102145.19
2022-11-30T10:25:14.545Z,102149.88
2022-11-30T10:27:51.725Z,102153.25
2022-11-30T10:30:23.445Z,102148.44
2022-11-30T10:32:54.782Z,102157.00
2022-11-30T10:35:35.998Z,102159.25
2022-11-30T10:38:15.596Z,102161.53
2022-11-30T10:40:49.060Z,102162.16
2022-11-30T10:43:26.072Z,102167.69
2022-11-30T10:45:54.271Z,102156.38
2022-11-30T10:48:30.111Z,102159.13
2022-11-30T10:50:58.810Z,102162.50
2022-11-30T10:53:26.831Z,102161.66
2022-11-30T10:56:02.081Z,102158.66
2022-11-30T10:58:37.366Z,102151.13
2022-11-30T11:01:08.168Z,102149.09
2022-11-30T11:03:36.742Z,102152.09
2022-11-30T11:06:14.129Z,102153.78
2022-11-30T11:08:45.496Z,102159.94
2022-11-30T11:11:29.686Z,102163.19
2022-11-30T11:14:22.511Z,102164.06
2022-11-30T11:16:53.451Z,102171.88
2022-11-30T11:19:37.396Z,102175.28
2022-11-30T11:22:08.262Z,102161.28
2022-11-30T11:24:37.043Z,102158.38
2022-11-30T11:27:05.197Z,102170.53
2022-11-30T11:29:36.236Z,102170.41
2022-11-30T11:32:20.030Z,102167.63
2022-11-30T11:34:51.297Z,102173.41
2022-11-30T11:37:23.293Z,102174.84
2022-11-30T11:40:15.546Z,102179.78
2022-11-30T11:42:47.980Z,102176.63
2022-11-30T11:45:21.169Z,102177.91
2022-11-30T11:48:02.593Z,102183.59
2022-11-30T11:51:05.199Z,102180.66
2022-11-30T11:53:25.373Z,102176.94
2022-11-30T11:55:59.722Z,102175.00
2022-11-30T11:58:39.539Z,102171.25
2022-11-30T12:01:39.413Z,102179.22
2022-11-30T12:04:21.683Z,102174.03
2022-11-30T12:06:53.879Z,102180.66
2022-11-30T12:09:28.679Z,102167.75
2022-11-30T12:11:56.721Z,102175.13
2022-11-30T12:14:27.151Z,102167.06
2022-11-30T12:17:10.751Z,102172.53
2022-11-30T12:19:47.677Z,102177.50
2022-11-30T12:22:33.974Z,102173.16
2022-11-30T12:25:22.466Z,102181.59
2022-11-30T12:28:02.943Z,102173.50
2022-11-30T12:30:41.419Z,102176.63
2022-11-30T12:33:16.449Z,102173.13
2022-11-30T12:36:06.055Z,102166.97
2022-11-30T12:38:42.785Z,102167.72
2022-11-30T12:41:26.189Z,102174.84
2022-11-30T12:44:06.559Z,102176.66
2022-11-30T12:46:42.977Z,102179.31
2022-11-30T12:49:25.204Z,102185.09
2022-11-30T12:52:10.541Z,102186.66
2022-11-30T12:54:46.709Z,102180.50
2022-11-30T12:57:22.987Z,102194.63
2022-11-30T13:00:03.021Z,102185.69
2022-11-30T13:02:50.711Z,102192.69
2022-11-30T13:05:24.407Z,102189.31
2022-11-30T13:08:09.135Z,102187.63
2022-11-30T13:10:46.654Z,102192.34
2022-11-30T13:13:19.707Z,102190.91
2022-11-30T13:15:50.403Z,102187.41
2022-11-30T13:18:20.768Z,102184.75
2022-11-30T13:20:57.948Z,102192.00
2022-11-30T13:23:35.983Z,102184.16
2022-11-30T13:26:10.271Z,102195.38
2022-11-30T13:28:58.698Z,102196.06
2022-11-30T13:31:31.102Z,102196.78
2022-11-30T13:34:00.145Z,102194.25
2022-11-30T13:36:40.919Z,102192.56
2022-11-30T13:39:24.102Z,102196.22
2022-11-30T13:42:13.377Z,102197.31
2022-11-30T13:44:43.142Z,102198.53
2022-11-30T13:47:19.646Z,102199.59
2022-11-30T13:49:55.242Z,102203.50
2022-11-30T13:53:20.966Z,102195.06
2022-11-30T13:55:57.199Z,102204.94
2022-11-30T13:58:26.126Z,102208.69
2022-11-30T14:04:32.997Z,102197.72
2022-11-30T14:07:09.456Z,102204.84
2022-11-30T14:09:57.687Z,102199.78
2022-11-30T14:12:46.402Z,102199.78
2022-11-30T14:15:44.120Z,102207.63
2022-11-30T14:18:21.726Z,102213.53
2022-11-30T14:20:54.226Z,102212.69
2022-11-30T14:23:25.954Z,102215.34
2022-11-30T14:26:10.237Z,102209.31
2022-11-30T14:28:43.956Z,102209.56
2022-11-30T14:31:19.749Z,102221.13
2022-11-30T14:33:52.601Z,102218.59
2022-11-30T14:36:21.965Z,102221.63
2022-11-30T14:38:51.047Z,102215.84
2022-11-30T14:41:26.959Z,102223.19
2022-11-30T14:44:07.141Z,102216.31
2022-11-30T14:46:36.306Z,102222.56
2022-11-30T14:49:22.899Z,102228.72
2022-11-30T14:51:54.420Z,102227.06
2022-11-30T14:54:40.737Z,102230.78
2022-11-30T14:57:20.159Z,102232.72
2022-11-30T14:59:51.534Z,102228.59
2022-11-30T15:02:25.278Z,102238.50
2022-11-30T15:04:55.802Z,102231.50
2022-11-30T15:07:26.072Z,102232.34
2022-11-30T15:10:03.912Z,102228.72
2022-11-30T15:12:40.186Z,102229.56
2022-11-30T15:15:15.994Z,102222.69
2022-11-30T15:17:58.900Z,102226.06
2022-11-30T15:20:33.294Z,102225.47
2022-11-30T15:23:01.804Z,102223.91
2022-11-30T15:25:36.207Z,102228.25
2022-11-30T15:28:06.935Z,102222.69
2022-11-30T15:30:38.579Z,102228.72
2022-11-30T15:33:06.707Z,102236.56
2022-11-30T15:35:57.355Z,102237.41
2022-11-30T15:38:26.912Z,102229.22
2022-11-30T15:41:03.379Z,102227.31
2022-11-30T15:43:44.309Z,102226.56
2022-11-30T15:46:31.087Z,102234.88
2022-11-30T15:49:16.787Z,102222.94
2022-11-30T15:51:47.015Z,102221.72
2022-11-30T15:54:15.590Z,102227.03
2022-11-30T15:56:56.778Z,102221.63
2022-11-30T15:59:28.974Z,102223.31
2022-11-30T16:02:08.964Z,102214.63
2022-11-30T16:05:10.854Z,102218.34
2022-11-30T16:07:50.993Z,102224.59
2022-11-30T16:10:21.843Z,102224.59
2022-11-30T16:12:51.251Z,102220.53
2022-11-30T16:15:23.696Z,102217.16
2022-11-30T16:17:53.279Z,102219.19
2022-11-30T16:20:21.999Z,102216.41
2022-11-30T16:22:50.175Z,102211.84
2022-11-30T16:25:20.105Z,102207.63
2022-11-30T16:27:48.764Z,102214.84
2022-11-30T16:30:18.858Z,102220.97
2022-11-30T16:32:48.958Z,102217.38
2022-11-30T16:35:24.786Z,102225.22
2022-11-30T16:37:53.539Z,102234.00
2022-11-30T16:40:21.470Z,102228.59
2022-11-30T16:42:51.735Z,102223.28
2022-11-30T16:45:22.318Z,102226.06
2022-11-30T16:47:52.638Z,102225.31
2022-11-30T16:50:21.229Z,102233.03
2022-11-30T16:52:49.929Z,102231.19
2022-11-30T16:55:19.782Z,102236.84
2022-11-30T16:57:48.774Z,102235.25
2022-11-30T17:00:19.066Z,102241.00
2022-11-30T17:02:54.938Z,102244.63
2022-11-30T17:05:23.023Z,102243.06
2022-11-30T17:07:51.156Z,102247.28
2022-11-30T17:10:19.931Z,102252.44
2022-11-30T17:12:48.392Z,102256.56
2022-11-30T17:15:20.916Z,102253.94
2022-11-30T17:17:49.517Z,102257.31
2022-11-30T17:20:19.756Z,102255.50
2022-11-30T17:22:47.788Z,102258.25
2022-11-30T17:25:18.395Z,102258.38
2022-11-30T17:27:46.875Z,102259.44
2022-11-30T17:30:16.743Z,102260.66
2022-11-30T17:32:47.078Z,102266.19
2022-11-30T17:35:15.514Z,102268.09
2022-11-30T17:37:44.875Z,102262.16
2022-11-30T17:40:15.537Z,102257.94
2022-11-30T17:42:43.922Z,102263.34
2022-11-30T17:45:12.381Z,102266.34
2022-11-30T17:47:40.441Z,102270.91
2022-11-30T17:50:09.783Z,102280.44
2022-11-30T17:52:38.386Z,102282.03
2022-11-30T17:55:09.241Z,102280.94
2022-11-30T17:57:39.636Z,102286.13
2022-11-30T18:00:09.719Z,102279.00
2022-11-30T18:02:38.025Z,102289.50
2022-11-30T18:05:06.651Z,102286.97
2022-11-30T18:07:35.418Z,102281.28
2022-11-30T18:10:03.519Z,102283.81
2022-11-30T18:12:33.247Z,102283.19
2022-11-30T18:15:02.876Z,102279.91
2022-11-30T18:17:32.140Z,102280.28
2022-11-30T18:20:00.263Z,102281.44
2022-11-30T18:22:29.500Z,102279.66
2022-11-30T18:24:57.449Z,102281.56
2022-11-30T18:27:26.541Z,102286.22
2022-11-30T18:29:55.931Z,102285.28
2022-11-30T18:32:24.230Z,102289.94
2022-11-30T18:34:52.219Z,102290.09
2022-11-30T18:37:20.167Z,102294.53
2022-11-30T18:39:48.377Z,102300.03
2022-11-30T18:42:16.397Z,102304.59
2022-11-30T18:44:44.407Z,102300.03
2022-11-30T18:47:13.798Z,102305.34
2022-11-30T18:49:41.744Z,102306.06
2022-11-30T18:52:09.693Z,102308.47
2022-11-30T18:54:37.749Z,102310.78
2022-11-30T18:57:05.771Z,102306.97
2022-11-30T18:59:33.741Z,102308.44
2022-11-30T19:02:02.015Z,102316.25
2022-11-30T19:04:31.435Z,102317.09
2022-11-30T19:06:59.445Z,102318.81
2022-11-30T19:09:27.417Z,102319.53
2022-11-30T19:11:55.952Z,102314.47
2022-11-30T19:14:25.244Z,102321.56
2022-11-30T19:16:53.279Z,102331.31
2022-11-30T19:19:21.726Z,102331.19
2022-11-30T19:21:52.134Z,102329.41
2022-11-30T19:24:20.197Z,102323.34
2022-11-30T19:26:48.140Z,102325.06
2022-11-30T19:29:16.068Z,102327.59
2022-11-30T19:31:44.149Z,102330.03
2022-11-30T19:34:13.260Z,102323.88
2022-11-30T19:36:42.005Z,102322.19
2022-11-30T19:39:12.087Z,102320.50
2022-11-30T19:41:43.079Z,102321.34
2022-11-30T19:44:15.329Z,102320.50
2022-11-30T19:46:45.416Z,102316.16
2022-11-30T19:49:13.624Z,102317.94
2022-11-30T19:51:41.610Z,102319.75
2022-11-30T19:54:11.001Z,102317.09
2022-11-30T19:56:41.185Z,102325.31
2022-11-30T19:59:09.122Z,102321.16
2022-11-30T20:01:37.199Z,102325.00
2022-11-30T20:04:06.010Z,102332.31
2022-11-30T20:06:37.376Z,102319.19
2022-11-30T20:09:06.777Z,102329.16
2022-11-30T20:11:36.470Z,102327.03
2022-11-30T20:14:04.844Z,102327.41
2022-11-30T20:16:34.146Z,102331.41
2022-11-30T20:19:05.026Z,102331.13
2022-11-30T20:21:35.316Z,102339.59
2022-11-30T20:24:06.918Z,102333.78
2022-11-30T20:26:38.687Z,102337.59
2022-11-30T20:29:08.460Z,102342.25
2022-11-30T20:31:37.951Z,102335.25
2022-11-30T20:34:09.037Z,102346.59
2022-11-30T20:36:37.424Z,102342.88
2022-11-30T20:39:05.699Z,102339.28
2022-11-30T20:41:34.748Z,102338.97
2022-11-30T20:44:04.547Z,102341.38
2022-11-30T20:46:34.149Z,102346.25
2022-11-30T20:49:03.602Z,102345.94
2022-11-30T20:51:34.766Z,102339.56
2022-11-30T20:54:06.927Z,102342.94
2022-11-30T20:56:37.146Z,102348.34
2022-11-30T20:59:08.771Z,102340.75
2022-11-30T21:01:37.054Z,102346.91
2022-11-30T21:04:05.320Z,102348.59
2022-11-30T21:06:34.192Z,102347.94
2022-11-30T21:09:02.168Z,102350.41
2022-11-30T21:11:30.909Z,102348.19
2022-11-30T21:14:02.082Z,102347.53
2022-11-30T21:16:33.682Z,102344.38
2022-11-30T21:19:02.716Z,102351.56
2022-11-30T21:21:33.200Z,102357.81
2022-11-30T21:24:02.845Z,102357.72
2022-11-30T21:26:36.760Z,102358.75
2022-11-30T21:29:09.076Z,102354.44
2022-11-30T21:31:39.583Z,102357.91
2022-11-30T21:34:07.646Z,102359.72
2022-11-30T21:36:35.909Z,102359.91
2022-11-30T21:39:07.085Z,102363.41
2022-11-30T21:41:36.065Z,102364.25
2022-11-30T21:44:04.306Z,102360.75
2022-11-30T21:46:32.653Z,102361.50
2022-11-30T21:49:02.493Z,102361.50
2022-11-30T21:51:31.771Z,102362.47
2022-11-30T21:54:02.824Z,102364.06
2022-11-30T21:56:33.014Z,102361.50
2022-11-30T21:59:01.372Z,102365.09
2022-11-30T22:01:31.693Z,102368.94
2022-11-30T22:04:02.669Z,102364.59
2022-11-30T22:06:31.920Z,102361.84
2022-11-30T22:09:03.480Z,102367.25
2022-11-30T22:11:32.470Z,102370.84
2022-11-30T22:14:00.557Z,102369.78
2022-11-30T22:16:35.555Z,102371.44
2022-11-30T22:19:07.740Z,102367.00
2022-11-30T22:21:36.487Z,102368.69
2022-11-30T22:24:06.936Z,102368.50
2022-11-30T22:26:36.336Z,102376.22
2022-11-30T22:29:06.577Z,102369.97
2022-11-30T22:31:36.944Z,102358.56
2022-11-30T22:34:06.736Z,102363.94
2022-11-30T22:36:36.822Z,102362.25
2022-11-30T22:39:07.496Z,102365.75
2022-11-30T22:41:35.675Z,102361.94
2022-11-30T22:44:04.541Z,102360.75
2022-11-30T22:46:36.859Z,102361.09
2022-11-30T22:49:08.358Z,102361.69
2022-11-30T22:51:37.856Z,102362.88
2022-11-30T22:54:06.762Z,102354.59
2022-11-30T22:56:36.793Z,102352.69
2022-11-30T22:59:06.316Z,102354.38
2022-11-30T23:01:36.027Z,102349.84
2022-11-30T23:04:10.305Z,102352.59
2022-11-30T23:06:39.588Z,102346.66
2022-11-30T23:09:09.744Z,102353.25
2022-11-30T23:11:37.794Z,102348.06
2022-11-30T23:14:08.227Z,102347.09
2022-11-30T23:16:37.329Z,102349.53
2022-11-30T23:19:07.689Z,102349.44
2022-11-30T23:21:40.948Z,102349.66
2022-11-30T23:24:13.817Z,102357.69
2022-11-30T23:26:43.045Z,102346.38
2022-11-30T23:29:14.317Z,102355.16
2022-11-30T23:31:44.354Z,102356.00
2022-11-30T23:34:16.194Z,102356.94
2022-11-30T23:36:44.538Z,102350.81
2022-11-30T23:39:14.333Z,102348.16
2022-11-30T23:41:43.450Z,102348.81
2022-11-30T23:44:12.371Z,102349.53
2022-11-30T23:46:40.586Z,102353.66
2022-11-30T23:49:09.020Z,102343.81
2022-11-30T23:51:38.324Z,102346.44
2022-11-30T23:54:06.955Z,102343.91
2022-11-30T23:56:35.051Z,102339.34
2022-11-30T23:59:03.062Z,102341.50
